sensor_id;sensor_type;location;lat;lon;timestamp;pressure;altitude;pressure_sealevel;temperature;humidity
62864;BME280;48954;59.950;11.014;2023-04-22T00:00:17;100037.42;;;4.04;60.70
62864;BME280;48954;59.950;11.014;2023-04-22T00:03:04;100040.73;;;4.00;61.04
62864;BME280;48954;59.950;11.014;2023-04-22T00:05:31;100033.30;;;3.96;60.95
62864;BME280;48954;59.950;11.014;2023-04-22T00:07:57;100030.61;;;3.92;60.97
62864;BME280;48954;59.950;11.014;2023-04-22T00:10:23;100029.30;;;3.88;60.96
62864;BME280;48954;59.950;11.014;2023-04-22T00:12:49;100024.46;;;3.83;61.25
62864;BME280;48954;59.950;11.014;2023-04-22T00:15:14;100022.59;;;3.77;61.45
62864;BME280;48954;59.950;11.014;2023-04-22T00:17:40;100021.33;;;3.71;61.35
62864;BME280;48954;59.950;11.014;2023-04-22T00:20:06;100016.66;;;3.66;61.34
62864;BME280;48954;59.950;11.014;2023-04-22T00:22:32;100014.98;;;3.61;61.24
62864;BME280;48954;59.950;11.014;2023-04-22T00:24:58;100013.98;;;3.59;61.50
62864;BME280;48954;59.950;11.014;2023-04-22T00:27:24;100013.98;;;3.56;61.77
62864;BME280;48954;59.950;11.014;2023-04-22T00:29:50;100010.49;;;3.52;61.33
62864;BME280;48954;59.950;11.014;2023-04-22T00:32:16;100008.45;;;3.47;61.91
62864;BME280;48954;59.950;11.014;2023-04-22T00:34:41;100009.39;;;3.43;61.91
62864;BME280;48954;59.950;11.014;2023-04-22T00:37:07;100008.64;;;3.40;61.69
62864;BME280;48954;59.950;11.014;2023-04-22T00:39:33;100009.23;;;3.36;62.03
62864;BME280;48954;59.950;11.014;2023-04-22T00:41:59;100007.27;;;3.31;61.88
62864;BME280;48954;59.950;11.014;2023-04-22T00:44:25;100007.27;;;3.27;62.24
62864;BME280;48954;59.950;11.014;2023-04-22T00:46:51;100006.48;;;3.24;62.16
62864;BME280;48954;59.950;11.014;2023-04-22T00:49:18;100003.98;;;3.19;62.46
62864;BME280;48954;59.950;11.014;2023-04-22T00:51:44;100001.08;;;3.15;62.17
62864;BME280;48954;59.950;11.014;2023-04-22T00:54:10;100000.34;;;3.10;62.42
62864;BME280;48954;59.950;11.014;2023-04-22T00:56:37;99996.66;;;3.05;62.67
62864;BME280;48954;59.950;11.014;2023-04-22T00:59:03;99995.15;;;3.02;62.87
62864;BME280;48954;59.950;11.014;2023-04-22T01:01:29;99997.02;;;2.99;62.90
62864;BME280;48954;59.950;11.014;2023-04-22T01:03:55;99993.16;;;2.97;63.11
62864;BME280;48954;59.950;11.014;2023-04-22T01:06:22;99985.85;;;2.95;62.85
62864;BME280;48954;59.950;11.014;2023-04-22T01:08:48;99984.38;;;2.93;63.03
62864;BME280;48954;59.950;11.014;2023-04-22T01:11:14;99981.17;;;2.89;63.10
62864;BME280;48954;59.950;11.014;2023-04-22T01:13:40;99980.89;;;2.87;62.99
62864;BME280;48954;59.950;11.014;2023-04-22T01:16:07;99976.79;;;2.84;63.49
62864;BME280;48954;59.950;11.014;2023-04-22T01:18:36;99978.39;;;2.82;63.45
62864;BME280;48954;59.950;11.014;2023-04-22T01:21:03;99978.33;;;2.80;63.19
62864;BME280;48954;59.950;11.014;2023-04-22T01:23:29;99978.50;;;2.79;63.60
62864;BME280;48954;59.950;11.014;2023-04-22T01:25:56;99976.86;;;2.77;63.41
62864;BME280;48954;59.950;11.014;2023-04-22T01:28:22;99973.02;;;2.77;63.29
62864;BME280;48954;59.950;11.014;2023-04-22T01:30:48;99970.88;;;2.75;63.81
62864;BME280;48954;59.950;11.014;2023-04-22T01:33:15;99969.16;;;2.73;63.68
62864;BME280;48954;59.950;11.014;2023-04-22T01:35:41;99968.30;;;2.71;63.74
62864;BME280;48954;59.950;11.014;2023-04-22T01:38:09;99967.40;;;2.70;63.85
62864;BME280;48954;59.950;11.014;2023-04-22T01:40:36;99968.86;;;2.68;63.97
62864;BME280;48954;59.950;11.014;2023-04-22T01:43:02;99969.59;;;2.66;64.11
62864;BME280;48954;59.950;11.014;2023-04-22T01:45:28;99963.67;;;2.63;63.65
62864;BME280;48954;59.950;11.014;2023-04-22T01:47:54;99961.77;;;2.58;64.05
62864;BME280;48954;59.950;11.014;2023-04-22T01:50:21;99958.41;;;2.55;64.60
62864;BME280;48954;59.950;11.014;2023-04-22T01:52:47;99960.30;;;2.52;64.49
62864;BME280;48954;59.950;11.014;2023-04-22T01:55:13;99957.93;;;2.50;64.49
62864;BME280;48954;59.950;11.014;2023-04-22T01:57:39;99956.63;;;2.48;64.76
62864;BME280;48954;59.950;11.014;2023-04-22T02:00:06;99952.98;;;2.46;64.58
62864;BME280;48954;59.950;11.014;2023-04-22T02:02:32;99949.23;;;2.44;64.70
62864;BME280;48954;59.950;11.014;2023-04-22T02:04:58;99949.95;;;2.42;64.63
62864;BME280;48954;59.950;11.014;2023-04-22T02:07:24;99946.90;;;2.40;64.60
62864;BME280;48954;59.950;11.014;2023-04-22T02:09:50;99948.88;;;2.38;64.88
62864;BME280;48954;59.950;11.014;2023-04-22T02:12:15;99943.05;;;2.36;65.14
62864;BME280;48954;59.950;11.014;2023-04-22T02:14:41;99941.92;;;2.34;64.86
62864;BME280;48954;59.950;11.014;2023-04-22T02:17:07;99943.55;;;2.31;64.76
62864;BME280;48954;59.950;11.014;2023-04-22T02:19:33;99941.45;;;2.27;64.99
62864;BME280;48954;59.950;11.014;2023-04-22T02:21:58;99939.87;;;2.24;64.59
62864;BME280;48954;59.950;11.014;2023-04-22T02:24:24;99939.33;;;2.21;64.89
62864;BME280;48954;59.950;11.014;2023-04-22T02:26:50;99935.94;;;2.17;65.20
62864;BME280;48954;59.950;11.014;2023-04-22T02:29:16;99933.33;;;2.13;65.19
62864;BME280;48954;59.950;11.014;2023-04-22T02:31:42;99928.58;;;2.12;65.17
62864;BME280;48954;59.950;11.014;2023-04-22T02:34:07;99925.46;;;2.10;65.12
62864;BME280;48954;59.950;11.014;2023-04-22T02:36:33;99927.18;;;2.08;65.01
62864;BME280;48954;59.950;11.014;2023-04-22T02:39:01;99922.85;;;2.05;64.84
62864;BME280;48954;59.950;11.014;2023-04-22T02:41:26;99922.37;;;2.01;64.98
62864;BME280;48954;59.950;11.014;2023-04-22T02:43:52;99916.45;;;1.98;64.91
62864;BME280;48954;59.950;11.014;2023-04-22T02:46:18;99910.00;;;1.95;65.26
62864;BME280;48954;59.950;11.014;2023-04-22T02:48:44;99909.86;;;1.92;65.19
62864;BME280;48954;59.950;11.014;2023-04-22T02:51:10;99909.03;;;1.89;65.28
62864;BME280;48954;59.950;11.014;2023-04-22T02:53:36;99908.37;;;1.86;65.58
62864;BME280;48954;59.950;11.014;2023-04-22T02:56:02;99906.99;;;1.84;65.37
62864;BME280;48954;59.950;11.014;2023-04-22T02:58:28;99906.86;;;1.81;65.56
62864;BME280;48954;59.950;11.014;2023-04-22T03:00:53;99902.73;;;1.77;65.56
62864;BME280;48954;59.950;11.014;2023-04-22T03:03:19;99903.99;;;1.72;65.53
62864;BME280;48954;59.950;11.014;2023-04-22T03:05:45;99899.18;;;1.68;65.71
62864;BME280;48954;59.950;11.014;2023-04-22T03:08:11;99897.36;;;1.65;65.73
62864;BME280;48954;59.950;11.014;2023-04-22T03:10:36;99896.42;;;1.62;65.92
62864;BME280;48954;59.950;11.014;2023-04-22T03:13:02;99892.52;;;1.58;65.93
62864;BME280;48954;59.950;11.014;2023-04-22T03:15:28;99891.14;;;1.54;65.86
62864;BME280;48954;59.950;11.014;2023-04-22T03:17:54;99890.16;;;1.51;65.78
62864;BME280;48954;59.950;11.014;2023-04-22T03:20:20;99888.25;;;1.47;66.05
62864;BME280;48954;59.950;11.014;2023-04-22T03:22:46;99887.27;;;1.44;66.08
62864;BME280;48954;59.950;11.014;2023-04-22T03:25:12;99882.95;;;1.41;66.05
62864;BME280;48954;59.950;11.014;2023-04-22T03:27:38;99885.30;;;1.39;66.31
62864;BME280;48954;59.950;11.014;2023-04-22T03:30:04;99886.16;;;1.36;66.14
62864;BME280;48954;59.950;11.014;2023-04-22T03:32:30;99880.68;;;1.32;66.10
62864;BME280;48954;59.950;11.014;2023-04-22T03:34:56;99879.55;;;1.30;66.34
62864;BME280;48954;59.950;11.014;2023-04-22T03:37:22;99877.26;;;1.28;66.33
62864;BME280;48954;59.950;11.014;2023-04-22T03:39:47;99870.49;;;1.26;66.80
62864;BME280;48954;59.950;11.014;2023-04-22T03:42:13;99873.66;;;1.25;66.61
62864;BME280;48954;59.950;11.014;2023-04-22T03:44:39;99874.84;;;1.22;66.74
62864;BME280;48954;59.950;11.014;2023-04-22T03:47:05;99871.52;;;1.18;66.69
62864;BME280;48954;59.950;11.014;2023-04-22T03:49:31;99867.73;;;1.17;66.99
62864;BME280;48954;59.950;11.014;2023-04-22T03:51:57;99861.36;;;1.15;67.00
62864;BME280;48954;59.950;11.014;2023-04-22T03:54:23;99856.61;;;1.13;66.96
62864;BME280;48954;59.950;11.014;2023-04-22T03:56:49;99852.55;;;1.13;67.13
62864;BME280;48954;59.950;11.014;2023-04-22T03:59:16;99848.23;;;1.13;67.36
62864;BME280;48954;59.950;11.014;2023-04-22T04:01:42;99843.41;;;1.13;67.16
62864;BME280;48954;59.950;11.014;2023-04-22T04:04:08;99843.30;;;1.12;67.33
62864;BME280;48954;59.950;11.014;2023-04-22T04:06:33;99843.64;;;1.11;67.03
62864;BME280;48954;59.950;11.014;2023-04-22T04:08:59;99843.21;;;1.11;67.20
62864;BME280;48954;59.950;11.014;2023-04-22T04:11:25;99837.58;;;1.11;67.25
62864;BME280;48954;59.950;11.014;2023-04-22T04:13:51;99834.48;;;1.11;67.13
62864;BME280;48954;59.950;11.014;2023-04-22T04:16:17;99829.55;;;1.11;67.45
62864;BME280;48954;59.950;11.014;2023-04-22T04:18:43;99827.37;;;1.12;67.49
62864;BME280;48954;59.950;11.014;2023-04-22T04:21:08;99827.52;;;1.14;67.64
62864;BME280;48954;59.950;11.014;2023-04-22T04:23:34;99823.51;;;1.14;67.39
62864;BME280;48954;59.950;11.014;2023-04-22T04:26:00;99822.03;;;1.15;67.73
62864;BME280;48954;59.950;11.014;2023-04-22T04:28:26;99819.93;;;1.19;67.85
62864;BME280;48954;59.950;11.014;2023-04-22T04:30:52;99815.77;;;1.21;67.87
62864;BME280;48954;59.950;11.014;2023-04-22T04:33:17;99809.92;;;1.26;68.13
62864;BME280;48954;59.950;11.014;2023-04-22T04:35:43;99811.39;;;1.31;68.36
62864;BME280;48954;59.950;11.014;2023-04-22T04:38:09;99812.46;;;1.36;68.10
62864;BME280;48954;59.950;11.014;2023-04-22T04:40:35;99812.03;;;1.41;68.50
62864;BME280;48954;59.950;11.014;2023-04-22T04:43:01;99804.93;;;1.48;68.43
62864;BME280;48954;59.950;11.014;2023-04-22T04:45:27;99803.95;;;1.55;68.32
62864;BME280;48954;59.950;11.014;2023-04-22T04:47:53;99801.27;;;1.60;68.31
62864;BME280;48954;59.950;11.014;2023-04-22T04:50:19;99800.05;;;1.67;68.44
62864;BME280;48954;59.950;11.014;2023-04-22T04:52:48;99801.91;;;1.74;68.46
62864;BME280;48954;59.950;11.014;2023-04-22T04:55:15;99801.39;;;1.81;68.68
62864;BME280;48954;59.950;11.014;2023-04-22T04:57:41;99800.23;;;1.88;68.29
62864;BME280;48954;59.950;11.014;2023-04-22T05:00:07;99802.11;;;1.95;68.63
62864;BME280;48954;59.950;11.014;2023-04-22T05:02:33;99800.06;;;2.02;68.40
62864;BME280;48954;59.950;11.014;2023-04-22T05:04:59;99797.25;;;2.09;68.48
62864;BME280;48954;59.950;11.014;2023-04-22T05:07:25;99801.02;;;2.17;68.46
62864;BME280;48954;59.950;11.014;2023-04-22T05:09:51;99801.64;;;2.24;68.58
62864;BME280;48954;59.950;11.014;2023-04-22T05:12:16;99798.08;;;2.31;68.15
62864;BME280;48954;59.950;11.014;2023-04-22T05:14:42;99792.36;;;2.36;68.59
62864;BME280;48954;59.950;11.014;2023-04-22T05:17:08;99789.27;;;2.41;68.28
62864;BME280;48954;59.950;11.014;2023-04-22T05:19:34;99792.05;;;2.48;68.57
62864;BME280;48954;59.950;11.014;2023-04-22T05:22:00;99789.09;;;2.55;68.54
62864;BME280;48954;59.950;11.014;2023-04-22T05:24:25;99787.00;;;2.61;68.01
62864;BME280;48954;59.950;11.014;2023-04-22T05:26:51;99783.00;;;2.67;68.07
62864;BME280;48954;59.950;11.014;2023-04-22T05:29:17;99779.17;;;2.75;68.14
62864;BME280;48954;59.950;11.014;2023-04-22T05:31:43;99778.56;;;2.83;68.20
62864;BME280;48954;59.950;11.014;2023-04-22T05:34:09;99775.46;;;2.92;68.48
62864;BME280;48954;59.950;11.014;2023-04-22T05:36:34;99773.40;;;3.01;68.12
62864;BME280;48954;59.950;11.014;2023-04-22T05:39:00;99772.33;;;3.12;68.16
62864;BME280;48954;59.950;11.014;2023-04-22T05:41:26;99766.39;;;3.21;68.02
62864;BME280;48954;59.950;11.014;2023-04-22T05:43:52;99765.66;;;3.31;67.86
62864;BME280;48954;59.950;11.014;2023-04-22T05:46:18;99763.38;;;3.41;67.72
62864;BME280;48954;59.950;11.014;2023-04-22T05:48:43;99757.08;;;3.51;67.85
62864;BME280;48954;59.950;11.014;2023-04-22T05:51:09;99756.91;;;3.63;67.72
62864;BME280;48954;59.950;11.014;2023-04-22T05:53:35;99750.66;;;3.75;67.71
62864;BME280;48954;59.950;11.014;2023-04-22T05:56:01;99747.45;;;3.87;67.63
62864;BME280;48954;59.950;11.014;2023-04-22T05:58:26;99745.34;;;4.00;67.19
62864;BME280;48954;59.950;11.014;2023-04-22T06:00:52;99741.63;;;4.13;67.22
62864;BME280;48954;59.950;11.014;2023-04-22T06:03:18;99736.79;;;4.28;67.16
62864;BME280;48954;59.950;11.014;2023-04-22T06:05:44;99736.11;;;4.44;67.14
62864;BME280;48954;59.950;11.014;2023-04-22T06:08:10;99734.80;;;4.59;67.08
62864;BME280;48954;59.950;11.014;2023-04-22T06:10:35;99728.98;;;4.75;66.56
62864;BME280;48954;59.950;11.014;2023-04-22T06:13:01;99727.94;;;4.90;66.32
62864;BME280;48954;59.950;11.014;2023-04-22T06:15:27;99726.28;;;5.05;66.17
62864;BME280;48954;59.950;11.014;2023-04-22T06:17:53;99720.89;;;5.25;66.29
62864;BME280;48954;59.950;11.014;2023-04-22T06:20:19;99715.23;;;5.48;66.09
62864;BME280;48954;59.950;11.014;2023-04-22T06:22:45;99715.23;;;5.73;65.78
62864;BME280;48954;59.950;11.014;2023-04-22T06:25:10;99707.79;;;5.98;65.66
62864;BME280;48954;59.950;11.014;2023-04-22T06:27:36;99706.44;;;6.23;65.33
62864;BME280;48954;59.950;11.014;2023-04-22T06:30:03;99701.09;;;6.49;65.15
62864;BME280;48954;59.950;11.014;2023-04-22T06:32:29;99693.39;;;6.74;64.69
62864;BME280;48954;59.950;11.014;2023-04-22T06:34:55;99692.39;;;6.99;64.30
62864;BME280;48954;59.950;11.014;2023-04-22T06:37:21;99687.28;;;7.20;63.88
62864;BME280;48954;59.950;11.014;2023-04-22T06:39:46;99684.30;;;7.38;63.60
62864;BME280;48954;59.950;11.014;2023-04-22T06:42:13;99682.36;;;7.58;63.37
62864;BME280;48954;59.950;11.014;2023-04-22T06:44:38;99676.98;;;7.77;63.13
62864;BME280;48954;59.950;11.014;2023-04-22T06:47:04;99676.09;;;7.99;62.69
62864;BME280;48954;59.950;11.014;2023-04-22T06:49:30;99672.73;;;8.19;62.24
62864;BME280;48954;59.950;11.014;2023-04-22T06:51:56;99672.49;;;8.36;61.85
62864;BME280;48954;59.950;11.014;2023-04-22T06:54:25;99671.83;;;8.56;61.71
62864;BME280;48954;59.950;11.014;2023-04-22T06:56:51;99666.29;;;8.76;61.41
62864;BME280;48954;59.950;11.014;2023-04-22T06:59:16;99664.45;;;8.91;60.68
62864;BME280;48954;59.950;11.014;2023-04-22T07:01:42;99659.44;;;9.04;60.48
62864;BME280;48954;59.950;11.014;2023-04-22T07:04:08;99655.12;;;9.18;60.07
62864;BME280;48954;59.950;11.014;2023-04-22T07:06:34;99653.91;;;9.26;59.61
62864;BME280;48954;59.950;11.014;2023-04-22T07:09:00;99647.61;;;9.37;59.54
62864;BME280;48954;59.950;11.014;2023-04-22T07:11:25;99643.77;;;9.52;59.27
62864;BME280;48954;59.950;11.014;2023-04-22T07:13:51;99642.20;;;9.69;59.21
62864;BME280;48954;59.950;11.014;2023-04-22T07:16:17;99636.80;;;9.86;58.83
62864;BME280;48954;59.950;11.014;2023-04-22T07:18:43;99632.72;;;10.03;58.59
62864;BME280;48954;59.950;11.014;2023-04-22T07:21:09;99627.34;;;10.19;58.03
62864;BME280;48954;59.950;11.014;2023-04-22T07:23:35;99620.61;;;10.33;57.69
62864;BME280;48954;59.950;11.014;2023-04-22T07:26:01;99616.80;;;10.48;57.70
62864;BME280;48954;59.950;11.014;2023-04-22T07:28:27;99614.95;;;10.64;57.16
62864;BME280;48954;59.950;11.014;2023-04-22T07:30:53;99612.70;;;10.79;56.51
62864;BME280;48954;59.950;11.014;2023-04-22T07:33:18;99606.73;;;10.87;56.03
62864;BME280;48954;59.950;11.014;2023-04-22T07:35:44;99603.61;;;10.97;56.16
62864;BME280;48954;59.950;11.014;2023-04-22T07:38:10;99599.41;;;11.17;55.84
62864;BME280;48954;59.950;11.014;2023-04-22T07:40:36;99595.55;;;11.44;55.55
62864;BME280;48954;59.950;11.014;2023-04-22T07:43:02;99591.59;;;11.67;54.93
62864;BME280;48954;59.950;11.014;2023-04-22T07:45:28;99590.35;;;11.77;54.08
62864;BME280;48954;59.950;11.014;2023-04-22T07:47:53;99588.27;;;11.86;54.09
62864;BME280;48954;59.950;11.014;2023-04-22T07:50:22;99586.85;;;12.03;53.96
62864;BME280;48954;59.950;11.014;2023-04-22T07:52:47;99586.63;;;12.21;53.76
62864;BME280;48954;59.950;11.014;2023-04-22T07:55:13;99586.09;;;12.35;53.33
62864;BME280;48954;59.950;11.014;2023-04-22T07:57:39;99581.84;;;12.48;52.99
62864;BME280;48954;59.950;11.014;2023-04-22T08:00:06;99575.73;;;12.59;52.72
62864;BME280;48954;59.950;11.014;2023-04-22T08:02:32;99570.55;;;12.53;51.88
62864;BME280;48954;59.950;11.014;2023-04-22T08:04:58;99569.27;;;12.52;52.21
62864;BME280;48954;59.950;11.014;2023-04-22T08:07:24;99568.85;;;12.63;52.23
62864;BME280;48954;59.950;11.014;2023-04-22T08:09:50;99566.02;;;12.85;51.91
62864;BME280;48954;59.950;11.014;2023-04-22T08:12:15;99560.48;;;13.16;51.84
62864;BME280;48954;59.950;11.014;2023-04-22T08:14:41;99560.60;;;13.46;51.06
62864;BME280;48954;59.950;11.014;2023-04-22T08:17:07;99552.10;;;13.74;50.79
62864;BME280;48954;59.950;11.014;2023-04-22T08:19:33;99549.88;;;14.01;50.45
62864;BME280;48954;59.950;11.014;2023-04-22T08:22:04;99542.25;;;14.25;50.16
62864;BME280;48954;59.950;11.014;2023-04-22T08:24:31;99540.34;;;14.55;49.58
62864;BME280;48954;59.950;11.014;2023-04-22T08:26:59;99534.08;;;14.83;49.15
62864;BME280;48954;59.950;11.014;2023-04-22T08:29:25;99534.02;;;15.11;48.75
62864;BME280;48954;59.950;11.014;2023-04-22T08:31:51;99531.89;;;15.35;48.44
62864;BME280;48954;59.950;11.014;2023-04-22T08:34:16;99525.06;;;15.60;47.83
62864;BME280;48954;59.950;11.014;2023-04-22T08:36:42;99523.23;;;15.79;47.34
62864;BME280;48954;59.950;11.014;2023-04-22T08:39:08;99512.98;;;15.91;46.94
62864;BME280;48954;59.950;11.014;2023-04-22T08:41:34;99517.63;;;16.18;46.74
62864;BME280;48954;59.950;11.014;2023-04-22T08:44:01;99517.26;;;16.47;46.13
62864;BME280;48954;59.950;11.014;2023-04-22T08:46:28;99514.51;;;16.74;45.81
62864;BME280;48954;59.950;11.014;2023-04-22T08:48:55;99510.88;;;17.05;45.30
62864;BME280;48954;59.950;11.014;2023-04-22T08:51:24;99509.51;;;17.36;44.80
62864;BME280;48954;59.950;11.014;2023-04-22T08:53:52;99503.96;;;17.69;44.55
62864;BME280;48954;59.950;11.014;2023-04-22T08:56:18;99502.70;;;18.00;43.92
62864;BME280;48954;59.950;11.014;2023-04-22T08:58:44;99493.35;;;18.22;43.30
62864;BME280;48954;59.950;11.014;2023-04-22T09:01:10;99488.86;;;18.48;42.98
62864;BME280;48954;59.950;11.014;2023-04-22T09:03:38;99489.66;;;18.77;42.32
62864;BME280;48954;59.950;11.014;2023-04-22T09:06:04;99488.37;;;19.04;42.09
62864;BME280;48954;59.950;11.014;2023-04-22T09:08:31;99484.45;;;19.30;41.62
62864;BME280;48954;59.950;11.014;2023-04-22T09:11:00;99476.73;;;19.47;41.05
62864;BME280;48954;59.950;11.014;2023-04-22T09:13:33;99476.92;;;19.64;40.60
62864;BME280;48954;59.950;11.014;2023-04-22T09:15:59;99473.42;;;19.84;40.18
62864;BME280;48954;59.950;11.014;2023-04-22T09:18:25;99474.63;;;20.08;39.99
62864;BME280;48954;59.950;11.014;2023-04-22T09:20:54;99470.38;;;20.32;39.52
62864;BME280;48954;59.950;11.014;2023-04-22T09:23:21;99467.15;;;20.59;39.40
62864;BME280;48954;59.950;11.014;2023-04-22T09:25:49;99463.39;;;20.90;38.92
62864;BME280;48954;59.950;11.014;2023-04-22T09:28:20;99457.52;;;21.18;38.40
62864;BME280;48954;59.950;11.014;2023-04-22T09:30:47;99455.62;;;21.30;38.09
62864;BME280;48954;59.950;11.014;2023-04-22T09:33:13;99451.98;;;21.28;37.57
62864;BME280;48954;59.950;11.014;2023-04-22T09:35:40;99452.42;;;21.33;37.32
62864;BME280;48954;59.950;11.014;2023-04-22T09:38:09;99448.23;;;21.43;36.95
62864;BME280;48954;59.950;11.014;2023-04-22T09:40:43;99446.35;;;21.63;36.61
62864;BME280;48954;59.950;11.014;2023-04-22T09:43:17;99438.23;;;21.91;36.33
62864;BME280;48954;59.950;11.014;2023-04-22T09:45:43;99439.55;;;22.23;35.96
62864;BME280;48954;59.950;11.014;2023-04-22T09:48:12;99432.96;;;22.47;35.58
62864;BME280;48954;59.950;11.014;2023-04-22T09:50:43;99433.98;;;22.68;34.99
62864;BME280;48954;59.950;11.014;2023-04-22T09:53:12;99430.39;;;22.83;34.48
62864;BME280;48954;59.950;11.014;2023-04-22T09:55:42;99424.67;;;22.92;34.20
62864;BME280;48954;59.950;11.014;2023-04-22T09:58:14;99424.77;;;23.06;33.90
62864;BME280;48954;59.950;11.014;2023-04-22T10:00:52;99417.66;;;23.23;33.50
62864;BME280;48954;59.950;11.014;2023-04-22T10:03:18;99415.14;;;23.54;33.05
62864;BME280;48954;59.950;11.014;2023-04-22T10:05:45;99413.97;;;23.91;32.83
62864;BME280;48954;59.950;11.014;2023-04-22T10:08:12;99418.16;;;24.25;32.31
62864;BME280;48954;59.950;11.014;2023-04-22T10:10:39;99414.20;;;24.54;31.87
62864;BME280;48954;59.950;11.014;2023-04-22T10:13:06;99415.90;;;24.72;31.45
62864;BME280;48954;59.950;11.014;2023-04-22T10:15:37;99409.12;;;24.69;30.11
62864;BME280;48954;59.950;11.014;2023-04-22T10:18:06;99402.88;;;24.48;29.03
62864;BME280;48954;59.950;11.014;2023-04-22T10:20:35;99405.03;;;24.48;28.48
62864;BME280;48954;59.950;11.014;2023-04-22T10:23:04;99402.77;;;24.33;27.44
62864;BME280;48954;59.950;11.014;2023-04-22T10:25:30;99400.73;;;24.12;27.39
62864;BME280;48954;59.950;11.014;2023-04-22T10:28:05;99407.41;;;23.99;27.29
62864;BME280;48954;59.950;11.014;2023-04-22T10:30:37;99404.23;;;24.07;27.15
62864;BME280;48954;59.950;11.014;2023-04-22T10:36:18;99396.17;;;24.18;25.84
62864;BME280;48954;59.950;11.014;2023-04-22T10:41:31;99386.02;;;23.92;25.72
62864;BME280;48954;59.950;11.014;2023-04-22T10:44:05;99383.80;;;24.27;25.68
62864;BME280;48954;59.950;11.014;2023-04-22T10:49:07;99383.39;;;24.71;24.68
62864;BME280;48954;59.950;11.014;2023-04-22T10:51:46;99376.64;;;24.36;24.75
62864;BME280;48954;59.950;11.014;2023-04-22T10:57:04;99369.50;;;24.12;24.22
62864;BME280;48954;59.950;11.014;2023-04-22T10:59:32;99365.48;;;23.87;24.57
62864;BME280;48954;59.950;11.014;2023-04-22T11:02:01;99356.08;;;23.51;24.53
62864;BME280;48954;59.950;11.014;2023-04-22T11:04:36;99357.55;;;23.03;24.87
62864;BME280;48954;59.950;11.014;2023-04-22T11:10:09;99349.50;;;22.40;25.40
62864;BME280;48954;59.950;11.014;2023-04-22T11:12:54;99344.23;;;22.59;25.41
62864;BME280;48954;59.950;11.014;2023-04-22T11:15:20;99342.39;;;22.92;25.26
62864;BME280;48954;59.950;11.014;2023-04-22T11:18:06;99336.46;;;23.05;24.87
62864;BME280;48954;59.950;11.014;2023-04-22T11:20:39;99340.79;;;23.50;24.49
62864;BME280;48954;59.950;11.014;2023-04-22T11:23:05;99338.52;;;24.35;23.76
62864;BME280;48954;59.950;11.014;2023-04-22T11:25:31;99334.58;;;24.83;23.97
62864;BME280;48954;59.950;11.014;2023-04-22T11:28:03;99327.86;;;24.91;23.73
62864;BME280;48954;59.950;11.014;2023-04-22T11:30:39;99331.08;;;24.52;23.61
62864;BME280;48954;59.950;11.014;2023-04-22T11:33:08;99319.48;;;23.91;24.03
62864;BME280;48954;59.950;11.014;2023-04-22T11:35:37;99318.90;;;23.61;23.84
62864;BME280;48954;59.950;11.014;2023-04-22T11:38:04;99317.81;;;23.49;23.64
62864;BME280;48954;59.950;11.014;2023-04-22T11:40:40;99314.68;;;23.02;23.89
62864;BME280;48954;59.950;11.014;2023-04-22T11:43:10;99312.84;;;22.62;24.16
62864;BME280;48954;59.950;11.014;2023-04-22T11:45:37;99312.92;;;22.43;24.08
62864;BME280;48954;59.950;11.014;2023-04-22T11:48:13;99317.52;;;22.75;23.54
62864;BME280;48954;59.950;11.014;2023-04-22T11:50:40;99314.27;;;24.00;23.09
62864;BME280;48954;59.950;11.014;2023-04-22T11:53:20;99313.34;;;25.05;22.89
62864;BME280;48954;59.950;11.014;2023-04-22T11:55:48;99306.23;;;26.23;22.01
62864;BME280;48954;59.950;11.014;2023-04-22T12:00:47;99295.83;;;26.42;20.69
62864;BME280;48954;59.950;11.014;2023-04-22T12:03:18;99294.35;;;26.38;20.54
62864;BME280;48954;59.950;11.014;2023-04-22T12:08:15;99289.06;;;25.57;21.22
62864;BME280;48954;59.950;11.014;2023-04-22T12:10:50;99289.30;;;25.48;20.73
62864;BME280;48954;59.950;11.014;2023-04-22T12:13:30;99290.45;;;25.03;21.20
62864;BME280;48954;59.950;11.014;2023-04-22T12:16:01;99284.52;;;24.76;21.07
62864;BME280;48954;59.950;11.014;2023-04-22T12:25:09;99274.96;;;24.38;21.40
62864;BME280;48954;59.950;11.014;2023-04-22T12:27:55;99266.20;;;23.67;21.76
62864;BME280;48954;59.950;11.014;2023-04-22T12:30:38;99268.34;;;23.18;22.18
62864;BME280;48954;59.950;11.014;2023-04-22T12:33:04;99265.13;;;23.01;22.47
62864;BME280;48954;59.950;11.014;2023-04-22T12:35:30;99257.96;;;22.89;22.39
62864;BME280;48954;59.950;11.014;2023-04-22T12:37:55;99253.45;;;22.59;22.66
62864;BME280;48954;59.950;11.014;2023-04-22T12:40:21;99250.31;;;22.52;23.21
62864;BME280;48954;59.950;11.014;2023-04-22T12:42:47;99244.15;;;22.66;22.92
62864;BME280;48954;59.950;11.014;2023-04-22T12:45:14;99246.96;;;22.89;22.80
62864;BME280;48954;59.950;11.014;2023-04-22T12:47:40;99244.08;;;22.87;22.74
62864;BME280;48954;59.950;11.014;2023-04-22T12:50:06;99243.64;;;22.54;22.89
62864;BME280;48954;59.950;11.014;2023-04-22T12:52:33;99240.66;;;22.46;23.38
62864;BME280;48954;59.950;11.014;2023-04-22T12:54:59;99238.35;;;22.58;23.00
62864;BME280;48954;59.950;11.014;2023-04-22T12:57:26;99233.08;;;22.13;23.23
62864;BME280;48954;59.950;11.014;2023-04-22T12:59:53;99232.86;;;21.81;23.54
62864;BME280;48954;59.950;11.014;2023-04-22T13:02:18;99231.94;;;21.67;23.69
62864;BME280;48954;59.950;11.014;2023-04-22T13:04:44;99229.96;;;21.71;23.90
62864;BME280;48954;59.950;11.014;2023-04-22T13:07:10;99224.27;;;21.79;23.96
62864;BME280;48954;59.950;11.014;2023-04-22T13:09:36;99224.64;;;21.91;23.97
62864;BME280;48954;59.950;11.014;2023-04-22T13:12:02;99218.45;;;21.89;24.16
62864;BME280;48954;59.950;11.014;2023-04-22T13:14:27;99209.25;;;22.09;24.31
62864;BME280;48954;59.950;11.014;2023-04-22T13:16:53;99211.79;;;22.48;23.91
62864;BME280;48954;59.950;11.014;2023-04-22T13:19:19;99215.96;;;22.29;23.55